createdAt,value
2023-02-02T00:01:33.587Z,88.02
2023-02-02T00:04:02.486Z,87.54
2023-02-02T00:06:30.648Z,88.07
2023-02-02T00:08:59.232Z,88.41
2023-02-02T00:11:38.117Z,88.64
2023-02-02T00:14:08.378Z,89.23
2023-02-02T00:16:37.695Z,89.22
2023-02-02T00:19:15.279Z,90.00
2023-02-02T00:21:42.787Z,89.65
2023-02-02T00:24:11.464Z,89.58
2023-02-02T00:26:40.020Z,89.46
2023-02-02T00:29:07.956Z,89.48
2023-02-02T00:31:34.888Z,89.58
2023-02-02T00:34:03.219Z,89.11
2023-02-02T00:36:29.736Z,89.25
2023-02-02T00:38:56.219Z,89.23
2023-02-02T00:41:29.257Z,88.69
2023-02-02T00:44:14.677Z,89.06
2023-02-02T00:46:43.497Z,89.02
2023-02-02T00:49:10.511Z,89.54
2023-02-02T00:51:40.281Z,89.97
2023-02-02T00:54:06.902Z,90.32
2023-02-02T00:56:33.636Z,90.91
2023-02-02T00:59:07.826Z,91.23
2023-02-02T01:01:34.489Z,91.26
2023-02-02T01:04:01.572Z,91.64
2023-02-02T01:06:32.944Z,91.84
2023-02-02T01:08:59.410Z,91.71
2023-02-02T01:11:26.000Z,91.43
2023-02-02T01:13:54.396Z,91.58
2023-02-02T01:16:22.781Z,92.29
2023-02-02T01:18:50.470Z,92.10
2023-02-02T01:21:17.430Z,92.32
2023-02-02T01:23:44.041Z,93.14
2023-02-02T01:26:12.143Z,92.87
2023-02-02T01:28:46.203Z,93.54
2023-02-02T01:31:15.504Z,94.38
2023-02-02T01:33:45.279Z,94.51
2023-02-02T01:36:15.279Z,94.82
2023-02-02T01:38:42.465Z,94.83
2023-02-02T01:41:18.420Z,95.02
2023-02-02T01:43:44.855Z,95.26
2023-02-02T01:46:15.350Z,95.00
2023-02-02T01:48:53.209Z,94.93
2023-02-02T01:51:24.176Z,94.94
2023-02-02T01:53:59.939Z,95.63
2023-02-02T01:56:32.763Z,95.95
2023-02-02T01:59:06.778Z,96.13
2023-02-02T02:01:33.425Z,96.42
2023-02-02T02:04:01.927Z,96.23
2023-02-02T02:06:28.695Z,96.59
2023-02-02T02:09:03.515Z,97.17
2023-02-02T02:11:31.823Z,97.35
2023-02-02T02:14:19.819Z,97.18
2023-02-02T02:17:11.409Z,98.23
2023-02-02T02:20:39.119Z,98.84
2023-02-02T02:23:43.470Z,98.92
2023-02-02T02:26:33.740Z,99.03
2023-02-02T02:29:29.105Z,99.12
2023-02-02T02:32:06.113Z,99.72
2023-02-02T02:35:06.334Z,99.46
2023-02-02T02:37:39.116Z,99.69
2023-02-02T02:40:42.749Z,99.81
2023-02-02T02:43:24.429Z,100.00
2023-02-02T02:45:55.475Z,100.00
2023-02-02T02:48:22.715Z,100.00
2023-02-02T02:50:50.127Z,100.00
2023-02-02T02:53:22.315Z,100.00
2023-02-02T02:55:52.038Z,100.00
2023-02-02T02:58:40.217Z,100.00
2023-02-02T03:01:44.182Z,100.00
2023-02-02T03:04:40.664Z,100.00
2023-02-02T03:07:15.440Z,100.00
2023-02-02T03:09:46.296Z,100.00
2023-02-02T03:12:13.383Z,100.00
2023-02-02T03:14:39.863Z,100.00
2023-02-02T03:17:10.848Z,100.00
2023-02-02T03:19:37.378Z,100.00
2023-02-02T03:22:04.135Z,100.00
2023-02-02T03:24:32.596Z,100.00
2023-02-02T03:26:59.134Z,100.00
2023-02-02T03:29:25.675Z,100.00
2023-02-02T03:31:54.468Z,100.00
2023-02-02T03:34:23.221Z,100.00
2023-02-02T03:36:49.717Z,100.00
2023-02-02T03:39:16.414Z,100.00
2023-02-02T03:41:42.906Z,100.00
2023-02-02T03:44:11.768Z,100.00
2023-02-02T03:46:38.536Z,100.00
2023-02-02T03:49:05.023Z,100.00
2023-02-02T03:51:31.491Z,100.00
2023-02-02T03:53:58.141Z,100.00
2023-02-02T03:56:24.898Z,100.00
2023-02-02T03:58:51.467Z,100.00
2023-02-02T04:01:19.798Z,100.00
2023-02-02T04:03:46.404Z,100.00
2023-02-02T04:06:12.890Z,100.00
2023-02-02T04:08:44.595Z,99.89
2023-02-02T04:11:11.361Z,99.86
2023-02-02T04:13:38.157Z,99.83
2023-02-02T04:16:11.567Z,100.00
2023-02-02T04:18:38.484Z,99.94
2023-02-02T04:21:05.504Z,100.00
2023-02-02T04:23:40.820Z,100.00
2023-02-02T04:26:08.105Z,100.00
2023-02-02T04:28:35.345Z,100.00
2023-02-02T04:31:13.436Z,100.00
2023-02-02T04:33:41.199Z,100.00
2023-02-02T04:36:07.873Z,100.00
2023-02-02T04:38:34.635Z,100.00
2023-02-02T04:41:07.078Z,100.00
2023-02-02T04:43:34.819Z,100.00
2023-02-02T04:46:01.708Z,100.00
2023-02-02T04:48:28.237Z,100.00
2023-02-02T04:51:02.806Z,100.00
2023-02-02T04:53:29.956Z,100.00
2023-02-02T04:55:56.727Z,100.00
2023-02-02T04:58:32.081Z,100.00
2023-02-02T05:00:59.692Z,100.00
2023-02-02T05:03:26.184Z,100.00
2023-02-02T05:06:01.714Z,100.00
2023-02-02T05:08:28.555Z,100.00
2023-02-02T05:10:55.379Z,100.00
2023-02-02T05:13:22.005Z,100.00
2023-02-02T05:15:49.040Z,100.00
2023-02-02T05:18:17.779Z,100.00
2023-02-02T05:20:46.373Z,100.00
2023-02-02T05:23:12.903Z,100.00
2023-02-02T05:25:39.371Z,100.00
2023-02-02T05:28:07.808Z,100.00
2023-02-02T05:30:42.082Z,100.00
2023-02-02T05:33:10.524Z,100.00
2023-02-02T05:35:37.271Z,100.00
2023-02-02T05:38:04.015Z,100.00
2023-02-02T05:40:32.405Z,100.00
2023-02-02T05:43:00.918Z,100.00
2023-02-02T05:45:27.655Z,100.00
2023-02-02T05:47:55.837Z,100.00
2023-02-02T05:50:22.604Z,100.00
2023-02-02T05:52:49.650Z,99.95
2023-02-02T05:55:18.153Z,99.62
2023-02-02T05:57:44.734Z,99.37
2023-02-02T06:00:16.584Z,99.06
2023-02-02T06:02:45.279Z,99.25
2023-02-02T06:05:11.967Z,98.80
2023-02-02T06:07:38.536Z,98.55
2023-02-02T06:10:07.494Z,98.49
2023-02-02T06:12:34.255Z,98.13
2023-02-02T06:15:00.744Z,98.32
2023-02-02T06:17:27.776Z,97.70
2023-02-02T06:19:54.260Z,97.95
2023-02-02T06:22:20.763Z,97.81
2023-02-02T06:24:51.711Z,97.67
2023-02-02T06:27:18.253Z,97.16
2023-02-02T06:29:46.731Z,97.10
2023-02-02T06:32:15.477Z,96.95
2023-02-02T06:34:42.087Z,96.80
2023-02-02T06:37:08.622Z,96.62
2023-02-02T06:39:37.365Z,96.43
2023-02-02T06:42:20.099Z,96.71
2023-02-02T06:44:56.260Z,96.70
2023-02-02T06:47:22.782Z,97.08
2023-02-02T06:49:49.308Z,96.63
2023-02-02T06:52:15.939Z,96.84
2023-02-02T06:54:42.464Z,96.41
2023-02-02T06:57:09.586Z,96.06
2023-02-02T06:59:38.360Z,95.70
2023-02-02T07:02:04.903Z,96.19
2023-02-02T07:04:31.522Z,95.96
2023-02-02T07:06:58.280Z,95.53
2023-02-02T07:09:24.781Z,94.87
2023-02-02T07:11:51.266Z,95.14
2023-02-02T07:14:19.501Z,94.51
2023-02-02T07:16:45.972Z,94.92
2023-02-02T07:19:12.448Z,95.02
2023-02-02T07:21:40.816Z,94.86
2023-02-02T07:24:07.850Z,94.74
2023-02-02T07:26:36.173Z,94.47
2023-02-02T07:29:04.721Z,94.36
2023-02-02T07:31:31.397Z,93.93
2023-02-02T07:34:00.918Z,94.39
2023-02-02T07:36:27.592Z,94.23
2023-02-02T07:38:54.753Z,94.16
2023-02-02T07:41:22.150Z,94.55
2023-02-02T07:43:51.538Z,94.65
2023-02-02T07:46:21.102Z,94.27
2023-02-02T07:48:47.670Z,94.32
2023-02-02T07:51:16.858Z,94.41
2023-02-02T07:53:46.743Z,94.25
2023-02-02T07:56:22.465Z,94.05
2023-02-02T07:58:50.660Z,94.09
2023-02-02T08:01:17.233Z,94.03
2023-02-02T08:03:44.729Z,93.83
2023-02-02T08:06:21.604Z,93.54
2023-02-02T08:08:50.681Z,93.35
2023-02-02T08:11:19.703Z,93.85
2023-02-02T08:13:49.954Z,93.64
2023-02-02T08:16:18.545Z,93.95
2023-02-02T08:18:45.360Z,93.96
2023-02-02T08:21:12.245Z,94.12
2023-02-02T08:23:44.176Z,94.26
2023-02-02T08:26:12.049Z,94.41
2023-02-02T08:28:40.275Z,94.59
2023-02-02T08:31:13.415Z,95.13
2023-02-02T08:33:40.105Z,95.25
2023-02-02T08:36:13.906Z,95.39
2023-02-02T08:38:43.352Z,95.67
2023-02-02T08:41:13.239Z,94.94
2023-02-02T08:43:40.518Z,96.08
2023-02-02T08:46:11.205Z,98.87
2023-02-02T08:48:38.498Z,99.98
2023-02-02T08:51:06.402Z,100.00
2023-02-02T08:53:38.139Z,100.00
2023-02-02T08:56:07.597Z,100.00
2023-02-02T08:58:40.121Z,100.00
2023-02-02T09:01:07.724Z,100.00
2023-02-02T09:03:34.943Z,100.00
2023-02-02T09:06:09.765Z,100.00
2023-02-02T09:08:36.876Z,100.00
2023-02-02T09:11:20.212Z,100.00
2023-02-02T09:13:51.709Z,100.00
2023-02-02T09:16:21.042Z,100.00
2023-02-02T09:18:49.717Z,100.00
2023-02-02T09:21:19.286Z,100.00
2023-02-02T09:23:47.576Z,100.00
2023-02-02T09:26:38.975Z,100.00
2023-02-02T09:29:11.496Z,100.00
2023-02-02T09:31:38.246Z,100.00
2023-02-02T09:34:08.675Z,100.00
2023-02-02T09:36:35.877Z,100.00
2023-02-02T09:39:03.241Z,100.00
2023-02-02T09:41:35.931Z,100.00
2023-02-02T09:44:22.584Z,100.00
2023-02-02T09:47:04.112Z,100.00
2023-02-02T09:49:56.673Z,100.00
2023-02-02T09:52:34.145Z,100.00
2023-02-02T09:55:25.087Z,100.00
2023-02-02T09:58:16.764Z,100.00
2023-02-02T10:00:54.266Z,100.00
2023-02-02T10:03:40.779Z,99.81
2023-02-02T10:06:31.012Z,99.47
2023-02-02T10:09:06.879Z,99.06
2023-02-02T10:11:36.165Z,98.79
2023-02-02T10:14:09.801Z,98.33
2023-02-02T10:16:39.727Z,98.24
2023-02-02T10:19:11.079Z,97.52
2023-02-02T10:22:03.829Z,97.35
2023-02-02T10:24:32.018Z,97.07
2023-02-02T10:27:04.476Z,96.90
2023-02-02T10:29:48.201Z,96.94
2023-02-02T10:32:34.143Z,97.09
2023-02-02T10:35:31.207Z,97.45
2023-02-02T10:38:15.468Z,97.31
2023-02-02T10:40:58.496Z,98.18
2023-02-02T10:43:46.266Z,98.25
2023-02-02T10:46:17.360Z,97.97
2023-02-02T10:48:47.125Z,98.38
2023-02-02T10:51:29.978Z,98.32
2023-02-02T10:54:05.090Z,98.30
2023-02-02T10:56:40.466Z,98.09
2023-02-02T10:59:17.949Z,98.44
2023-02-02T11:01:47.311Z,98.65
2023-02-02T11:04:32.995Z,98.64
2023-02-02T11:07:06.032Z,98.71
2023-02-02T11:09:39.519Z,99.01
2023-02-02T11:12:34.175Z,99.40
2023-02-02T11:15:05.246Z,99.08
2023-02-02T11:17:33.308Z,99.05
2023-02-02T11:20:00.253Z,98.06
2023-02-02T11:22:38.581Z,97.41
2023-02-02T11:25:10.275Z,97.03
2023-02-02T11:27:42.577Z,96.52
2023-02-02T11:30:27.791Z,96.19
2023-02-02T11:32:55.746Z,94.88
2023-02-02T11:35:27.298Z,94.20
2023-02-02T11:37:57.764Z,92.89
2023-02-02T11:40:45.244Z,91.85
2023-02-02T11:43:22.556Z,91.38
2023-02-02T11:46:02.601Z,91.35
2023-02-02T11:48:39.886Z,89.74
2023-02-02T11:51:07.767Z,89.45
2023-02-02T11:53:46.639Z,89.00
2023-02-02T11:56:27.327Z,88.77
2023-02-02T11:58:56.699Z,88.53
2023-02-02T12:01:25.003Z,90.40
2023-02-02T12:03:53.966Z,90.14
2023-02-02T12:06:24.829Z,89.65
2023-02-02T12:08:56.987Z,89.08
2023-02-02T12:11:37.332Z,90.69
2023-02-02T12:14:16.241Z,94.52
2023-02-02T12:16:59.295Z,97.13
2023-02-02T12:19:41.438Z,95.30
2023-02-02T12:22:23.019Z,96.93
2023-02-02T12:24:55.460Z,96.54
2023-02-02T12:27:29.567Z,95.80
2023-02-02T12:30:11.377Z,94.89
2023-02-02T12:32:51.197Z,94.66
2023-02-02T12:35:45.249Z,95.48
2023-02-02T12:38:43.216Z,96.16
2023-02-02T12:41:15.771Z,97.04
2023-02-02T12:43:46.113Z,96.88
2023-02-02T12:46:38.998Z,97.50
2023-02-02T12:49:49.528Z,97.35
2023-02-02T12:52:53.364Z,97.13
2023-02-02T12:55:38.172Z,98.32
2023-02-02T12:58:35.315Z,98.00
2023-02-02T13:01:19.363Z,98.51
2023-02-02T13:04:14.881Z,97.71
2023-02-02T13:07:09.817Z,100.00
2023-02-02T13:09:51.520Z,100.00
2023-02-02T13:12:29.701Z,100.00
2023-02-02T13:15:01.015Z,100.00
2023-02-02T13:17:38.865Z,100.00
2023-02-02T13:20:29.641Z,100.00
2023-02-02T13:23:05.155Z,100.00
2023-02-02T13:25:37.332Z,100.00
2023-02-02T13:28:07.363Z,100.00
2023-02-02T13:30:47.148Z,100.00
2023-02-02T13:33:23.951Z,100.00
2023-02-02T13:36:02.303Z,100.00
2023-02-02T13:38:30.696Z,100.00
2023-02-02T13:41:05.707Z,100.00
2023-02-02T13:43:54.677Z,100.00
2023-02-02T13:46:27.552Z,100.00
2023-02-02T13:49:15.527Z,100.00
2023-02-02T13:52:04.908Z,98.63
2023-02-02T13:54:40.605Z,98.04
2023-02-02T13:57:06.982Z,97.68
2023-02-02T13:59:51.346Z,97.14
2023-02-02T14:02:26.580Z,96.88
2023-02-02T14:04:59.380Z,95.76
2023-02-02T14:07:47.048Z,94.17
2023-02-02T14:10:33.728Z,94.38
2023-02-02T14:13:32.491Z,93.27
2023-02-02T14:16:02.184Z,93.05
2023-02-02T14:18:50.828Z,91.73
2023-02-02T14:21:32.793Z,90.36
2023-02-02T14:24:20.482Z,91.42
2023-02-02T14:26:49.995Z,89.95
2023-02-02T14:29:31.816Z,90.14
2023-02-02T14:32:04.543Z,90.34
2023-02-02T14:34:41.839Z,89.83
2023-02-02T14:37:22.458Z,90.30
2023-02-02T14:40:18.397Z,90.54
2023-02-02T14:43:38.416Z,89.50
2023-02-02T14:46:14.221Z,89.35
2023-02-02T14:49:09.361Z,89.08
2023-02-02T14:51:49.256Z,88.68
2023-02-02T14:54:38.760Z,90.21
2023-02-02T14:57:19.771Z,89.10
2023-02-02T14:59:47.387Z,88.40
2023-02-02T15:02:13.819Z,88.89
2023-02-02T15:04:44.517Z,88.83
2023-02-02T15:07:31.171Z,89.76
2023-02-02T15:09:58.207Z,89.52
2023-02-02T15:12:46.843Z,88.93
2023-02-02T15:15:29.771Z,88.41
2023-02-02T15:18:16.497Z,88.39
2023-02-02T15:20:49.833Z,89.48
2023-02-02T15:23:41.525Z,89.21
2023-02-02T15:26:25.012Z,88.06
2023-02-02T15:28:56.306Z,87.64
2023-02-02T15:31:32.346Z,87.63
2023-02-02T15:34:02.619Z,87.80
2023-02-02T15:36:33.947Z,87.16
2023-02-02T15:39:24.336Z,87.54
2023-02-02T15:42:12.407Z,87.83
2023-02-02T15:44:39.105Z,88.95
2023-02-02T15:47:13.025Z,89.08
2023-02-02T15:49:41.616Z,88.78
2023-02-02T15:52:39.073Z,88.77
2023-02-02T15:55:22.340Z,89.00
2023-02-02T15:57:49.888Z,87.23
2023-02-02T16:00:41.333Z,86.25
2023-02-02T16:03:18.803Z,86.25
2023-02-02T16:05:52.136Z,85.34
2023-02-02T16:08:24.826Z,85.23
2023-02-02T16:11:02.884Z,84.98
2023-02-02T16:13:30.153Z,84.78
2023-02-02T16:16:01.822Z,84.64
2023-02-02T16:18:36.187Z,85.02
2023-02-02T16:21:14.779Z,84.63
2023-02-02T16:23:48.009Z,85.61
2023-02-02T16:26:17.635Z,85.73
2023-02-02T16:28:46.614Z,86.24
2023-02-02T16:31:16.336Z,85.46
2023-02-02T16:33:44.665Z,84.91
2023-02-02T16:36:25.534Z,84.82
2023-02-02T16:38:53.995Z,84.60
2023-02-02T16:41:28.531Z,84.09
2023-02-02T16:43:55.453Z,83.93
2023-02-02T16:46:45.219Z,83.73
2023-02-02T16:49:22.786Z,83.45
2023-02-02T16:52:16.675Z,83.44
2023-02-02T16:54:52.209Z,82.94
2023-02-02T16:57:24.684Z,82.70
2023-02-02T16:59:54.262Z,82.88
2023-02-02T17:02:35.621Z,83.67
2023-02-02T17:05:24.844Z,83.87
2023-02-02T17:08:00.466Z,83.91
2023-02-02T17:10:40.023Z,83.63
2023-02-02T17:13:40.189Z,84.48
2023-02-02T17:16:07.384Z,84.33
2023-02-02T17:18:36.555Z,84.24
2023-02-02T17:21:11.940Z,84.37
2023-02-02T17:23:39.540Z,84.12
2023-02-02T17:26:08.804Z,84.61
2023-02-02T17:28:39.149Z,84.05
2023-02-02T17:31:12.013Z,83.89
2023-02-02T17:33:39.389Z,83.96
2023-02-02T17:36:10.645Z,84.32
2023-02-02T17:38:37.862Z,84.45
2023-02-02T17:41:04.791Z,84.78
2023-02-02T17:43:32.363Z,85.57
2023-02-02T17:45:59.126Z,85.32
2023-02-02T17:48:25.791Z,85.52
2023-02-02T17:50:52.500Z,85.10
2023-02-02T17:53:21.519Z,85.03
2023-02-02T17:55:51.587Z,85.72
2023-02-02T17:58:20.433Z,85.80
2023-02-02T18:00:55.543Z,85.52
2023-02-02T18:03:26.602Z,85.15
2023-02-02T18:05:53.175Z,85.04
2023-02-02T18:08:20.013Z,85.03
2023-02-02T18:10:48.285Z,85.16
2023-02-02T18:13:19.381Z,85.24
2023-02-02T18:15:46.156Z,85.63
2023-02-02T18:18:14.463Z,86.66
2023-02-02T18:20:42.495Z,87.01
2023-02-02T18:23:09.405Z,86.84
2023-02-02T18:25:42.737Z,87.24
2023-02-02T18:28:10.848Z,87.09
2023-02-02T18:30:40.932Z,87.21
2023-02-02T18:33:09.510Z,86.87
2023-02-02T18:35:42.910Z,87.33
2023-02-02T18:38:12.511Z,87.14
2023-02-02T18:40:39.009Z,87.49
2023-02-02T18:43:07.811Z,87.20
2023-02-02T18:45:36.175Z,87.18
2023-02-02T18:48:02.707Z,87.43
2023-02-02T18:50:29.288Z,87.31
2023-02-02T18:52:57.018Z,87.42
2023-02-02T18:55:26.188Z,87.52
2023-02-02T18:57:52.904Z,87.48
2023-02-02T19:00:21.696Z,87.55
2023-02-02T19:02:48.287Z,88.14
2023-02-02T19:05:34.792Z,88.05
2023-02-02T19:08:04.004Z,88.24
2023-02-02T19:10:31.117Z,88.73
2023-02-02T19:13:09.888Z,89.03
2023-02-02T19:15:42.246Z,89.26
2023-02-02T19:18:18.047Z,89.86
2023-02-02T19:20:45.428Z,90.31
2023-02-02T19:23:16.134Z,90.43
2023-02-02T19:25:49.471Z,90.56
2023-02-02T19:28:29.072Z,90.80
2023-02-02T19:31:00.391Z,91.68
2023-02-02T19:33:37.767Z,92.09
2023-02-02T19:36:07.439Z,92.30
2023-02-02T19:38:36.218Z,93.34
2023-02-02T19:41:02.721Z,93.63
2023-02-02T19:43:32.219Z,93.74
2023-02-02T19:46:00.103Z,94.33
2023-02-02T19:48:31.148Z,94.52
2023-02-02T19:50:59.187Z,94.84
2023-02-02T19:53:38.937Z,95.59
2023-02-02T19:56:24.732Z,95.84
2023-02-02T19:58:54.529Z,96.26
2023-02-02T20:01:23.832Z,96.22
2023-02-02T20:03:51.211Z,96.33
2023-02-02T20:06:23.998Z,96.16
2023-02-02T20:08:50.660Z,96.14
2023-02-02T20:11:34.165Z,96.06
2023-02-02T20:14:03.098Z,96.20
2023-02-02T20:16:44.991Z,96.75
2023-02-02T20:19:19.181Z,96.49
2023-02-02T20:21:48.504Z,96.31
2023-02-02T20:24:17.356Z,96.21
2023-02-02T20:26:44.432Z,95.95
2023-02-02T20:29:18.224Z,96.18
2023-02-02T20:31:46.341Z,95.97
2023-02-02T20:34:28.345Z,95.72
2023-02-02T20:37:14.042Z,95.92
2023-02-02T20:40:02.371Z,95.99
2023-02-02T20:42:30.091Z,96.10
2023-02-02T20:44:58.332Z,96.06
2023-02-02T20:47:24.973Z,96.10
2023-02-02T20:49:51.629Z,96.74
2023-02-02T20:52:23.594Z,97.32
2023-02-02T20:54:51.641Z,97.76
2023-02-02T20:57:18.520Z,98.42
2023-02-02T20:59:45.056Z,98.82
2023-02-02T21:02:20.807Z,99.18
2023-02-02T21:04:48.056Z,99.93
2023-02-02T21:07:17.140Z,100.00
2023-02-02T21:09:44.842Z,100.00
2023-02-02T21:12:12.017Z,100.00
2023-02-02T21:14:39.074Z,100.00
2023-02-02T21:17:14.933Z,100.00
2023-02-02T21:19:42.248Z,100.00
2023-02-02T21:22:08.796Z,100.00
2023-02-02T21:24:35.310Z,100.00
2023-02-02T21:27:03.424Z,100.00
2023-02-02T21:29:31.768Z,100.00
2023-02-02T21:32:01.635Z,100.00
2023-02-02T21:34:29.331Z,100.00
2023-02-02T21:36:58.221Z,100.00
2023-02-02T21:39:43.373Z,100.00
2023-02-02T21:42:09.902Z,100.00
2023-02-02T21:44:52.200Z,100.00
2023-02-02T21:47:29.443Z,100.00
2023-02-02T21:50:01.844Z,100.00
2023-02-02T21:52:33.307Z,100.00
2023-02-02T21:55:17.028Z,100.00
2023-02-02T21:57:43.893Z,100.00
2023-02-02T22:00:31.082Z,100.00
2023-02-02T22:02:59.051Z,100.00
2023-02-02T22:05:40.881Z,100.00
2023-02-02T22:08:20.892Z,100.00
2023-02-02T22:10:47.956Z,100.00
2023-02-02T22:13:17.857Z,100.00
2023-02-02T22:15:47.346Z,100.00
2023-02-02T22:18:17.831Z,100.00
2023-02-02T22:20:47.171Z,100.00
2023-02-02T22:23:22.286Z,100.00
2023-02-02T22:25:53.171Z,100.00
2023-02-02T22:28:23.888Z,100.00
2023-02-02T22:30:55.291Z,100.00
2023-02-02T22:33:23.162Z,100.00
2023-02-02T22:35:49.927Z,100.00
2023-02-02T22:38:19.320Z,100.00
2023-02-02T22:40:46.559Z,100.00
2023-02-02T22:43:18.426Z,100.00
2023-02-02T22:45:45.767Z,100.00
2023-02-02T22:48:14.064Z,100.00
2023-02-02T22:50:45.564Z,100.00
2023-02-02T22:53:14.054Z,100.00
2023-02-02T22:55:43.510Z,100.00
2023-02-02T22:58:11.830Z,100.00
2023-02-02T23:00:38.383Z,100.00
2023-02-02T23:03:04.924Z,100.00
2023-02-02T23:05:33.335Z,100.00
2023-02-02T23:08:00.013Z,100.00
2023-02-02T23:10:29.542Z,100.00
2023-02-02T23:12:58.794Z,100.00
2023-02-02T23:15:26.277Z,100.00
2023-02-02T23:17:54.836Z,100.00
2023-02-02T23:20:21.906Z,100.00
2023-02-02T23:22:48.668Z,100.00
2023-02-02T23:25:16.260Z,100.00
2023-02-02T23:27:46.672Z,100.00
2023-02-02T23:30:14.239Z,100.00
2023-02-02T23:32:41.610Z,100.00
2023-02-02T23:35:10.780Z,100.00
2023-02-02T23:37:37.667Z,100.00
2023-02-02T23:40:04.909Z,100.00
2023-02-02T23:42:31.852Z,100.00
2023-02-02T23:44:58.317Z,100.00
2023-02-02T23:47:25.005Z,100.00
2023-02-02T23:49:51.670Z,100.00
2023-02-02T23:52:21.664Z,100.00
2023-02-02T23:54:48.253Z,100.00
2023-02-02T23:57:16.813Z,100.00
2023-02-02T23:59:43.327Z,100.00
